Terminal Aerodrome Forecast
Issued by NWS

Home | Current Version | Previous Version | Text Only | Print | Product List | Glossary On
Versions: 1 2 3 4 5 6 7 8 9 10 11 12 13 14 15 16 17 18 19
967
FTUS41 KGYX 232320
TAFRKD
TAF
KRKD 232320Z 2400/2424 31006KT P6SM SCT250
     FM241000 00000KT P6SM SCT120 BKN200
     FM241500 21010KT P6SM VCSH BKN025 OVC060
     FM241800 22012G20KT 3SM -RASN BKN007 OVC012
      AMD LTD TO CLD VIS AND WIND=

USA.gov is the U.S. government's official web portal to all federal, state and local government web resources and services.